createdAt,value
2023-03-21T00:00:31.983Z,11.27
2023-03-21T00:03:02.234Z,11.20
2023-03-21T00:05:30.076Z,11.25
2023-03-21T00:07:57.406Z,11.32
2023-03-21T00:10:39.088Z,11.34
2023-03-21T00:13:07.914Z,11.31
2023-03-21T00:15:48.441Z,11.33
2023-03-21T00:18:23.863Z,11.32
2023-03-21T00:21:33.650Z,11.25
2023-03-21T00:23:49.690Z,11.03
2023-03-21T00:26:17.031Z,10.88
2023-03-21T00:28:47.860Z,10.92
2023-03-21T00:31:23.258Z,10.98
2023-03-21T00:33:50.599Z,10.81
2023-03-21T00:36:20.570Z,10.82
2023-03-21T00:38:48.513Z,10.91
2023-03-21T00:41:38.959Z,10.95
2023-03-21T00:44:09.520Z,10.95
2023-03-21T00:46:45.472Z,10.75
2023-03-21T00:49:17.326Z,10.96
2023-03-21T00:51:44.695Z,10.85
2023-03-21T00:54:13.155Z,10.98
2023-03-21T00:56:40.901Z,11.01
2023-03-21T00:59:10.908Z,11.09
2023-03-21T01:01:39.703Z,10.86
2023-03-21T01:04:13.385Z,11.06
2023-03-21T01:06:43.141Z,10.96
2023-03-21T01:09:16.730Z,10.98
2023-03-21T01:11:50.530Z,10.95
2023-03-21T01:14:23.974Z,10.91
2023-03-21T01:16:52.805Z,10.82
2023-03-21T01:19:29.158Z,10.93
2023-03-21T01:21:59.721Z,10.94
2023-03-21T01:24:27.375Z,10.90
2023-03-21T01:27:13.903Z,10.96
2023-03-21T01:30:00.448Z,10.79
2023-03-21T01:32:47.402Z,10.77
2023-03-21T01:35:47.992Z,10.68
2023-03-21T01:38:36.798Z,10.70
2023-03-21T01:41:41.976Z,10.75
2023-03-21T01:44:16.347Z,10.69
2023-03-21T01:47:00.412Z,10.59
2023-03-21T01:49:35.911Z,10.63
2023-03-21T01:52:15.201Z,10.56
2023-03-21T01:54:47.902Z,10.62
2023-03-21T01:57:30.016Z,10.72
2023-03-21T02:00:03.220Z,10.88
2023-03-21T02:02:31.409Z,10.60
2023-03-21T02:05:02.891Z,10.43
2023-03-21T02:07:36.711Z,10.47
2023-03-21T02:10:06.963Z,10.66
2023-03-21T02:12:35.082Z,10.67
2023-03-21T02:15:02.509Z,10.44
2023-03-21T02:17:32.762Z,10.52
2023-03-21T02:20:15.899Z,10.40
2023-03-21T02:22:52.312Z,10.48
2023-03-21T02:25:34.449Z,10.28
2023-03-21T02:28:10.712Z,10.30
2023-03-21T02:31:02.252Z,10.27
2023-03-21T02:33:37.253Z,10.24
2023-03-21T02:36:14.231Z,10.10
2023-03-21T02:39:14.546Z,10.15
2023-03-21T02:42:07.592Z,10.07
2023-03-21T02:44:47.110Z,10.12
2023-03-21T02:47:23.854Z,10.21
2023-03-21T02:50:15.332Z,10.16
2023-03-21T02:52:44.407Z,10.23
2023-03-21T02:55:15.995Z,10.13
2023-03-21T02:57:45.399Z,10.01
2023-03-21T03:00:20.027Z,9.96
2023-03-21T03:03:02.599Z,9.99
2023-03-21T03:05:37.189Z,10.28
2023-03-21T03:08:53.110Z,10.06
2023-03-21T03:11:33.247Z,10.17
2023-03-21T03:14:35.753Z,10.04
2023-03-21T03:16:59.749Z,10.07
2023-03-21T03:19:32.770Z,10.04
2023-03-21T03:22:10.827Z,10.03
2023-03-21T03:24:45.729Z,9.90
2023-03-21T03:27:23.481Z,9.92
2023-03-21T03:29:52.369Z,10.03
2023-03-21T03:32:27.562Z,9.97
2023-03-21T03:34:56.021Z,10.12
2023-03-21T03:37:32.852Z,10.38
2023-03-21T03:40:06.609Z,10.52
2023-03-21T03:42:37.033Z,10.25
2023-03-21T03:45:06.461Z,9.97
2023-03-21T03:48:02.410Z,9.92
2023-03-21T03:50:42.195Z,9.88
2023-03-21T03:53:23.802Z,9.94
2023-03-21T03:55:52.165Z,9.98
2023-03-21T03:58:23.756Z,9.89
2023-03-21T04:00:54.051Z,9.70
2023-03-21T04:03:25.099Z,9.60
2023-03-21T04:05:52.602Z,9.59
2023-03-21T04:08:19.913Z,9.63
2023-03-21T04:10:47.810Z,9.65
2023-03-21T04:13:18.127Z,9.89
2023-03-21T04:15:46.083Z,9.94
2023-03-21T04:18:14.191Z,9.96
2023-03-21T04:20:41.896Z,10.05
2023-03-21T04:23:09.315Z,9.92
2023-03-21T04:25:42.403Z,9.94
2023-03-21T04:28:15.111Z,9.74
2023-03-21T04:30:54.950Z,9.82
2023-03-21T04:33:27.926Z,9.52
2023-03-21T04:35:55.500Z,10.13
2023-03-21T04:38:25.116Z,12.93
2023-03-21T04:40:52.751Z,14.09
2023-03-21T04:43:20.493Z,13.12
2023-03-21T04:45:47.928Z,13.63
2023-03-21T04:48:15.844Z,13.18
2023-03-21T04:50:44.165Z,12.08
2023-03-21T04:53:12.789Z,12.72
2023-03-21T04:55:40.853Z,12.86
2023-03-21T04:58:08.742Z,13.39
2023-03-21T05:00:36.594Z,12.38
2023-03-21T05:03:06.553Z,11.53
2023-03-21T05:05:37.444Z,10.84
2023-03-21T05:08:06.444Z,10.46
2023-03-21T05:10:34.408Z,10.70
2023-03-21T05:13:02.344Z,11.91
2023-03-21T05:15:30.367Z,11.82
2023-03-21T05:17:58.263Z,12.20
2023-03-21T05:20:26.386Z,12.15
2023-03-21T05:22:53.796Z,11.23
2023-03-21T05:25:21.194Z,11.14
2023-03-21T05:27:48.754Z,10.94
2023-03-21T05:30:17.987Z,11.08
2023-03-21T05:32:46.108Z,11.23
2023-03-21T05:35:13.652Z,11.28
2023-03-21T05:37:40.881Z,11.09
2023-03-21T05:40:08.902Z,11.19
2023-03-21T05:42:36.220Z,11.15
2023-03-21T05:45:04.106Z,11.25
2023-03-21T05:47:31.588Z,11.50
2023-03-21T05:49:58.965Z,11.44
2023-03-21T05:52:30.066Z,11.36
2023-03-21T05:54:57.524Z,11.42
2023-03-21T05:57:25.339Z,11.41
2023-03-21T05:59:53.276Z,11.41
2023-03-21T06:02:20.877Z,11.45
2023-03-21T06:05:00.842Z,11.58
2023-03-21T06:07:31.378Z,11.38
2023-03-21T06:09:59.594Z,11.40
2023-03-21T06:12:30.211Z,11.42
2023-03-21T06:15:03.383Z,11.00
2023-03-21T06:17:31.851Z,11.17
2023-03-21T06:19:59.275Z,11.45
2023-03-21T06:22:28.309Z,11.56
2023-03-21T06:24:55.817Z,11.60
2023-03-21T06:27:26.262Z,11.57
2023-03-21T06:29:53.963Z,12.13
2023-03-21T06:32:22.042Z,12.23
2023-03-21T06:34:56.339Z,12.56
2023-03-21T06:37:27.149Z,12.83
2023-03-21T06:39:57.727Z,12.65
2023-03-21T06:42:25.071Z,13.21
2023-03-21T06:44:56.528Z,13.37
2023-03-21T06:47:23.960Z,13.64
2023-03-21T06:49:51.906Z,14.17
2023-03-21T06:52:21.847Z,15.00
2023-03-21T06:54:55.557Z,15.52
2023-03-21T06:57:23.028Z,16.16
2023-03-21T06:59:50.357Z,15.85
2023-03-21T07:02:17.996Z,16.13
2023-03-21T07:04:47.827Z,16.10
2023-03-21T07:07:15.152Z,15.62
2023-03-21T07:09:42.795Z,15.32
2023-03-21T07:12:10.277Z,14.78
2023-03-21T07:14:37.671Z,15.06
2023-03-21T07:17:05.044Z,15.00
2023-03-21T07:19:35.200Z,15.22
2023-03-21T07:22:02.754Z,15.37
2023-03-21T07:24:30.515Z,15.14
2023-03-21T07:26:58.032Z,14.85
2023-03-21T07:29:25.848Z,14.87
2023-03-21T07:31:53.337Z,14.77
2023-03-21T07:34:21.414Z,14.99
2023-03-21T07:36:55.094Z,15.19
2023-03-21T07:39:27.240Z,15.23
2023-03-21T07:42:03.563Z,15.54
2023-03-21T07:44:31.084Z,15.81
2023-03-21T07:47:01.221Z,15.59
2023-03-21T07:49:31.877Z,15.86
2023-03-21T07:52:00.105Z,16.14
2023-03-21T07:54:28.405Z,16.12
2023-03-21T07:56:56.638Z,16.39
2023-03-21T07:59:24.672Z,16.46
2023-03-21T08:01:52.272Z,16.78
2023-03-21T08:04:19.688Z,16.83
2023-03-21T08:06:52.140Z,17.17
2023-03-21T08:09:25.558Z,17.02
2023-03-21T08:11:55.988Z,16.97
2023-03-21T08:14:25.912Z,17.07
2023-03-21T08:16:56.837Z,17.20
2023-03-21T08:19:24.314Z,17.35
2023-03-21T08:21:58.640Z,17.49
2023-03-21T08:24:26.372Z,17.24
2023-03-21T08:26:56.640Z,17.51
2023-03-21T08:29:24.473Z,17.53
2023-03-21T08:31:55.653Z,17.55
2023-03-21T08:34:23.139Z,17.33
2023-03-21T08:36:53.705Z,17.02
2023-03-21T08:39:26.642Z,17.11
2023-03-21T08:41:54.079Z,16.71
2023-03-21T08:44:27.424Z,16.65
2023-03-21T08:46:58.065Z,16.72
2023-03-21T08:49:25.571Z,16.77
2023-03-21T08:51:58.550Z,17.34
2023-03-21T08:54:25.913Z,17.35
2023-03-21T08:56:53.443Z,17.25
2023-03-21T08:59:27.056Z,17.39
2023-03-21T09:01:57.220Z,17.32
2023-03-21T09:04:28.422Z,17.05
2023-03-21T09:07:05.469Z,17.13
2023-03-21T09:09:37.038Z,17.62
2023-03-21T09:12:04.540Z,17.78
2023-03-21T09:14:32.294Z,18.19
2023-03-21T09:17:05.943Z,18.40
2023-03-21T09:19:33.617Z,18.58
2023-03-21T09:22:03.770Z,18.63
2023-03-21T09:24:34.579Z,18.98
2023-03-21T09:27:05.326Z,18.99
2023-03-21T09:29:39.187Z,18.58
2023-03-21T09:32:06.885Z,18.96
2023-03-21T09:34:37.528Z,19.26
2023-03-21T09:37:05.742Z,19.47
2023-03-21T09:39:33.135Z,20.00
2023-03-21T09:42:07.689Z,19.93
2023-03-21T09:45:00.642Z,19.95
2023-03-21T09:47:37.107Z,19.50
2023-03-21T09:50:32.430Z,18.81
2023-03-21T09:53:20.567Z,19.03
2023-03-21T09:55:48.119Z,18.87
2023-03-21T09:58:34.407Z,19.03
2023-03-21T10:01:17.930Z,19.54
2023-03-21T10:03:45.781Z,19.90
2023-03-21T10:06:17.426Z,19.75
2023-03-21T10:08:48.794Z,19.45
2023-03-21T10:11:24.296Z,19.45
2023-03-21T10:13:59.753Z,19.82
2023-03-21T10:16:34.625Z,19.56
2023-03-21T10:19:07.522Z,19.04
2023-03-21T10:21:59.287Z,18.78
2023-03-21T10:24:30.003Z,19.35
2023-03-21T10:26:57.718Z,19.40
2023-03-21T10:29:39.305Z,19.52
2023-03-21T10:32:10.385Z,19.48
2023-03-21T10:34:41.891Z,18.86
2023-03-21T10:37:13.867Z,18.87
2023-03-21T10:39:47.898Z,19.42
2023-03-21T10:42:20.134Z,19.24
2023-03-21T10:44:50.169Z,19.49
2023-03-21T10:47:28.644Z,19.23
2023-03-21T10:50:10.622Z,18.78
2023-03-21T10:52:45.111Z,18.62
2023-03-21T10:55:21.447Z,18.60
2023-03-21T10:57:52.905Z,18.04
2023-03-21T11:00:24.703Z,18.78
2023-03-21T11:02:53.602Z,18.75
2023-03-21T11:05:35.838Z,18.41
2023-03-21T11:08:13.953Z,18.20
2023-03-21T11:11:05.087Z,18.01
2023-03-21T11:13:40.299Z,18.22
2023-03-21T11:16:23.379Z,17.98
2023-03-21T11:18:56.715Z,17.86
2023-03-21T11:21:25.358Z,17.64
2023-03-21T11:23:57.316Z,17.86
2023-03-21T11:26:31.248Z,18.18
2023-03-21T11:28:59.102Z,18.08
2023-03-21T11:31:44.245Z,18.09
2023-03-21T11:34:26.014Z,18.09
2023-03-21T11:36:58.753Z,18.13
2023-03-21T11:39:38.081Z,18.06
2023-03-21T11:42:25.203Z,18.09
2023-03-21T11:45:13.539Z,18.02
2023-03-21T11:47:41.241Z,17.86
2023-03-21T11:50:18.092Z,18.08
2023-03-21T11:52:48.403Z,18.16
2023-03-21T11:55:47.227Z,18.19
2023-03-21T11:58:35.752Z,18.44
2023-03-21T12:01:27.177Z,18.18
2023-03-21T12:04:25.004Z,17.83
2023-03-21T12:07:48.483Z,17.91
2023-03-21T12:10:31.314Z,17.69
2023-03-21T12:13:10.798Z,17.81
2023-03-21T12:16:07.889Z,17.54
2023-03-21T12:18:48.555Z,17.46
2023-03-21T12:21:18.899Z,17.43
2023-03-21T12:23:46.297Z,17.81
2023-03-21T12:26:29.440Z,17.80
2023-03-21T12:29:22.896Z,17.77
2023-03-21T12:32:08.510Z,17.87
2023-03-21T12:35:05.237Z,18.18
2023-03-21T12:38:00.260Z,17.84
2023-03-21T12:40:50.821Z,17.87
2023-03-21T12:43:35.956Z,17.85
2023-03-21T12:46:09.037Z,17.80
2023-03-21T12:48:56.280Z,17.42
2023-03-21T12:51:29.555Z,17.46
2023-03-21T12:54:10.163Z,17.57
2023-03-21T12:56:43.315Z,17.56
2023-03-21T12:59:23.350Z,17.66
2023-03-21T13:01:53.432Z,17.87
2023-03-21T13:04:36.776Z,17.98
2023-03-21T13:07:07.813Z,17.79
2023-03-21T13:09:40.292Z,17.84
2023-03-21T13:12:13.888Z,18.07
2023-03-21T13:14:59.580Z,17.91
2023-03-21T13:17:38.563Z,17.95
2023-03-21T13:20:22.494Z,18.13
2023-03-21T13:22:49.808Z,18.19
2023-03-21T13:25:23.312Z,17.94
2023-03-21T13:27:56.027Z,17.72
2023-03-21T13:30:29.124Z,17.84
2023-03-21T13:33:11.614Z,17.80
2023-03-21T13:35:41.309Z,17.92
2023-03-21T13:38:26.439Z,17.92
2023-03-21T13:41:00.309Z,17.83
2023-03-21T13:43:54.185Z,17.65
2023-03-21T13:46:24.732Z,17.62
2023-03-21T13:48:59.205Z,17.57
2023-03-21T13:51:56.115Z,17.54
2023-03-21T13:54:38.498Z,17.42
2023-03-21T13:57:06.998Z,17.50
2023-03-21T13:59:44.985Z,17.52
2023-03-21T14:02:12.278Z,17.60
2023-03-21T14:04:53.389Z,17.42
2023-03-21T14:07:27.192Z,17.27
2023-03-21T14:10:28.339Z,17.45
2023-03-21T14:12:56.744Z,17.33
2023-03-21T14:15:27.056Z,17.20
2023-03-21T14:18:00.384Z,17.11
2023-03-21T14:20:33.914Z,17.10
2023-03-21T14:23:06.125Z,16.96
2023-03-21T14:25:46.646Z,16.78
2023-03-21T14:28:24.034Z,16.84
2023-03-21T14:30:55.487Z,16.91
2023-03-21T14:33:31.889Z,16.76
2023-03-21T14:36:23.260Z,16.77
2023-03-21T14:38:55.901Z,16.69
2023-03-21T14:41:29.298Z,16.61
2023-03-21T14:44:14.748Z,16.47
2023-03-21T14:46:44.855Z,16.63
2023-03-21T14:49:32.124Z,16.52
2023-03-21T14:52:02.222Z,16.57
2023-03-21T14:54:31.164Z,16.53
2023-03-21T14:57:02.402Z,16.31
2023-03-21T14:59:32.131Z,16.32
2023-03-21T15:02:04.776Z,16.43
2023-03-21T15:04:32.869Z,16.45
2023-03-21T15:07:02.875Z,16.34
2023-03-21T15:09:33.233Z,16.23
2023-03-21T15:12:01.784Z,16.21
2023-03-21T15:14:34.655Z,16.18
2023-03-21T15:17:04.335Z,16.20
2023-03-21T15:19:35.501Z,16.26
2023-03-21T15:22:29.265Z,16.20
2023-03-21T15:25:02.365Z,16.10
2023-03-21T15:27:33.200Z,15.95
2023-03-21T15:30:00.615Z,15.82
2023-03-21T15:32:28.773Z,15.82
2023-03-21T15:35:06.282Z,15.86
2023-03-21T15:37:36.632Z,15.98
2023-03-21T15:40:28.328Z,15.95
2023-03-21T15:43:20.867Z,15.62
2023-03-21T15:45:56.026Z,15.64
2023-03-21T15:48:28.684Z,15.90
2023-03-21T15:50:56.339Z,15.84
2023-03-21T15:53:24.986Z,15.71
2023-03-21T15:55:57.653Z,15.73
2023-03-21T15:58:27.515Z,15.85
2023-03-21T16:00:57.208Z,15.88
2023-03-21T16:03:29.265Z,16.10
2023-03-21T16:06:12.184Z,15.93
2023-03-21T16:09:06.556Z,16.00
2023-03-21T16:11:40.048Z,16.01
2023-03-21T16:14:07.686Z,15.85
2023-03-21T16:16:35.487Z,15.66
2023-03-21T16:19:03.524Z,15.63
2023-03-21T16:21:32.051Z,15.50
2023-03-21T16:23:59.736Z,15.57
2023-03-21T16:26:37.281Z,15.63
2023-03-21T16:29:06.069Z,16.70
2023-03-21T16:31:35.877Z,15.96
2023-03-21T16:34:04.075Z,15.83
2023-03-21T16:36:40.146Z,15.69
2023-03-21T16:39:20.972Z,15.63
2023-03-21T16:41:49.334Z,15.76
2023-03-21T16:44:17.015Z,15.86
2023-03-21T16:46:45.072Z,15.63
2023-03-21T16:49:22.267Z,15.58
2023-03-21T16:51:53.224Z,15.58
2023-03-21T16:54:21.109Z,15.56
2023-03-21T16:56:58.580Z,15.45
2023-03-21T16:59:26.404Z,15.33
2023-03-21T17:01:53.708Z,15.35
2023-03-21T17:04:21.018Z,15.24
2023-03-21T17:06:51.354Z,15.26
2023-03-21T17:09:24.760Z,15.27
2023-03-21T17:11:52.091Z,15.27
2023-03-21T17:14:19.530Z,15.16
2023-03-21T17:16:47.289Z,15.17
2023-03-21T17:19:19.920Z,15.28
2023-03-21T17:21:47.444Z,15.26
2023-03-21T17:24:15.335Z,15.38
2023-03-21T17:26:42.956Z,15.41
2023-03-21T17:29:15.713Z,15.27
2023-03-21T17:31:43.231Z,15.22
2023-03-21T17:34:10.560Z,15.11
2023-03-21T17:36:40.502Z,14.88
2023-03-21T17:39:14.398Z,14.71
2023-03-21T17:41:42.009Z,14.72
2023-03-21T17:44:09.613Z,14.48
2023-03-21T17:46:37.425Z,14.29
2023-03-21T17:49:05.784Z,14.15
2023-03-21T17:51:33.255Z,14.12
2023-03-21T17:54:00.680Z,14.23
2023-03-21T17:56:30.503Z,13.95
2023-03-21T17:59:01.446Z,13.81
2023-03-21T18:01:29.119Z,13.77
2023-03-21T18:03:57.742Z,13.71
2023-03-21T18:06:26.634Z,13.80
2023-03-21T18:08:54.803Z,13.76
2023-03-21T18:11:25.149Z,13.66
2023-03-21T18:14:01.258Z,13.66
2023-03-21T18:16:34.264Z,13.58
2023-03-21T18:19:02.010Z,13.28
2023-03-21T18:21:32.908Z,13.34
2023-03-21T18:24:00.461Z,13.20
2023-03-21T18:26:27.700Z,13.04
2023-03-21T18:29:53.523Z,13.26
2023-03-21T18:32:04.297Z,13.20
2023-03-21T18:34:37.526Z,13.23
2023-03-21T18:37:08.027Z,13.14
2023-03-21T18:39:36.388Z,13.11
2023-03-21T18:42:06.784Z,13.09
2023-03-21T18:44:35.232Z,13.03
2023-03-21T18:47:09.202Z,13.00
2023-03-21T18:52:35.023Z,12.86
2023-03-21T18:55:06.770Z,12.88
2023-03-21T18:57:43.318Z,12.98
2023-03-21T19:00:17.854Z,12.96
2023-03-21T19:03:02.943Z,12.93
2023-03-21T19:05:53.220Z,12.99
2023-03-21T19:08:33.872Z,12.89
2023-03-21T19:11:16.293Z,12.95
2023-03-21T19:13:53.017Z,12.95
2023-03-21T19:16:56.178Z,12.90
2023-03-21T19:19:39.395Z,12.87
2023-03-21T19:22:09.869Z,13.00
2023-03-21T19:25:02.167Z,12.75
2023-03-21T19:27:52.060Z,12.80
2023-03-21T19:30:32.071Z,13.13
2023-03-21T19:33:05.123Z,12.91
2023-03-21T19:36:06.166Z,12.56
2023-03-21T19:44:16.080Z,12.41
2023-03-21T19:46:51.101Z,12.43
2023-03-21T19:49:42.917Z,12.41
2023-03-21T19:52:21.791Z,12.65
2023-03-21T19:55:01.788Z,12.55
2023-03-21T19:57:39.297Z,12.56
2023-03-21T20:00:07.383Z,12.53
2023-03-21T20:02:49.587Z,14.21
2023-03-21T20:05:23.570Z,13.03
2023-03-21T20:08:02.236Z,12.81
2023-03-21T20:10:35.275Z,12.80
2023-03-21T20:13:08.437Z,12.86
2023-03-21T20:15:48.038Z,12.78
2023-03-21T20:18:16.092Z,12.92
2023-03-21T20:20:45.113Z,12.77
2023-03-21T20:23:19.608Z,12.70
2023-03-21T20:25:48.124Z,12.67
2023-03-21T20:28:29.117Z,12.60
2023-03-21T20:31:16.892Z,12.57
2023-03-21T20:33:59.245Z,12.37
2023-03-21T20:36:39.966Z,12.31
2023-03-21T20:39:14.031Z,12.26
2023-03-21T20:41:53.402Z,12.38
2023-03-21T20:47:38.916Z,12.21
2023-03-21T20:50:16.773Z,12.19
2023-03-21T20:53:06.356Z,12.31
2023-03-21T20:55:34.829Z,12.29
2023-03-21T20:58:12.910Z,12.30
2023-03-21T21:00:50.635Z,12.44
2023-03-21T21:03:17.837Z,12.40
2023-03-21T21:05:45.420Z,12.32
2023-03-21T21:08:12.768Z,11.98
2023-03-21T21:11:02.717Z,11.98
2023-03-21T21:13:29.463Z,11.74
2023-03-21T21:15:56.631Z,11.83
2023-03-21T21:18:26.445Z,11.88
2023-03-21T21:20:54.743Z,11.90
2023-03-21T21:23:25.712Z,12.00
2023-03-21T21:26:14.626Z,12.00
2023-03-21T21:28:44.862Z,11.89
2023-03-21T21:31:21.029Z,12.09
2023-03-21T21:34:20.162Z,11.89
2023-03-21T21:36:53.004Z,12.04
2023-03-21T21:39:30.135Z,11.77
2023-03-21T21:42:00.367Z,11.90
2023-03-21T21:44:34.964Z,11.87
2023-03-21T21:47:14.877Z,11.72
2023-03-21T21:49:49.388Z,11.69
2023-03-21T21:52:16.662Z,11.67
2023-03-21T21:54:43.773Z,11.62
2023-03-21T21:57:11.063Z,11.54
2023-03-21T21:59:38.199Z,11.59
2023-03-21T22:02:11.135Z,11.68
2023-03-21T22:04:38.243Z,11.54
2023-03-21T22:07:05.733Z,11.46
2023-03-21T22:09:38.290Z,11.62
2023-03-21T22:12:05.720Z,11.73
2023-03-21T22:14:42.012Z,11.73
2023-03-21T22:17:14.485Z,11.66
2023-03-21T22:19:43.481Z,11.76
2023-03-21T22:22:18.048Z,11.77
2023-03-21T22:24:47.985Z,11.74
2023-03-21T22:27:18.593Z,11.83
2023-03-21T22:29:48.939Z,11.78
2023-03-21T22:32:16.331Z,11.77
2023-03-21T22:34:43.509Z,11.80
2023-03-21T22:37:11.251Z,11.91
2023-03-21T22:39:43.145Z,11.80
2023-03-21T22:42:12.959Z,11.91
2023-03-21T22:44:40.405Z,11.93
2023-03-21T22:47:10.373Z,11.94
2023-03-21T22:49:40.094Z,11.97
2023-03-21T22:52:07.291Z,11.89
2023-03-21T22:54:35.450Z,11.95
2023-03-21T22:57:06.176Z,11.94
2023-03-21T22:59:33.298Z,11.94
2023-03-21T23:02:03.614Z,11.93
2023-03-21T23:04:34.483Z,11.98
2023-03-21T23:07:07.780Z,11.92
2023-03-21T23:09:34.935Z,11.89
2023-03-21T23:12:02.040Z,11.91
2023-03-21T23:14:32.576Z,11.88
2023-03-21T23:17:02.868Z,11.81
2023-03-21T23:19:30.557Z,11.74
2023-03-21T23:22:00.378Z,11.71
2023-03-21T23:24:28.114Z,11.94
2023-03-21T23:26:57.955Z,11.83
2023-03-21T23:29:30.503Z,11.78
2023-03-21T23:32:09.362Z,11.84
2023-03-21T23:34:36.627Z,11.95
2023-03-21T23:37:07.232Z,11.87
2023-03-21T23:39:39.272Z,11.79
2023-03-21T23:42:06.357Z,11.74
2023-03-21T23:44:33.546Z,11.93
2023-03-21T23:47:01.120Z,11.85
2023-03-21T23:49:31.095Z,11.85
2023-03-21T23:52:01.322Z,11.84
2023-03-21T23:54:31.788Z,11.85
2023-03-21T23:56:59.020Z,11.77
2023-03-21T23:59:26.256Z,11.70
